| Date | Time | Temp. (oF) | Dew Point (oF) | Rel. Hum. (%) | Press. (in.) | Wind Dir. | Wind Speed (mph) | Hourly Rainfall (in.) |
|
|---|---|---|---|---|---|---|---|---|---|
| 1 | 12/15 | 00:00 | 8 | 4 | 86 | 30.41 | NE | 0 | 0.00 |
| 2 | 12/14 | 23:00 | 9 | 4 | 82 | 30.40 | ESE | 2 | 0.00 |
| 3 | 12/14 | 22:00 | 11 | 5 | 77 | 30.43 | ESE | 1 | 0.00 |
| 4 | 12/14 | 21:00 | 13 | 5 | 72 | 30.42 | ENE | 0 | 0.00 |
| 5 | 12/14 | 20:00 | 14 | 4 | 66 | 30.43 | ENE | 1 | 0.00 |
| 6 | 12/14 | 19:00 | 16 | 5 | 62 | 30.44 | S | 1 | 0.00 |
| 7 | 12/14 | 18:00 | 17 | 6 | 62 | 30.44 | ENE | 4 | 0.00 |
| 8 | 12/14 | 17:00 | 17 | 4 | 58 | 30.45 | E | 2 | 0.00 |
| 9 | 12/14 | 16:00 | 18 | 4 | 54 | 30.45 | ENE | 4 | 0.00 |
| 10 | 12/14 | 15:00 | 19 | 5 | 56 | 30.47 | NNE | 1 | 0.00 |
| 11 | 12/14 | 14:00 | 18 | 3 | 53 | 30.49 | SSW | 4 | 0.00 |
| 12 | 12/14 | 13:00 | 18 | 4 | 55 | 30.49 | NE | 3 | 0.00 |
| 13 | 12/14 | 12:00 | 16 | 6 | 65 | 30.50 | ENE | 1 | 0.00 |
| 14 | 12/14 | 11:00 | 14 | 9 | 83 | 30.53 | S | 1 | 0.00 |
| 15 | 12/14 | 10:00 | 10 | 8 | 93 | 30.57 | SSE | 1 | 0.00 |
| 16 | 12/14 | 09:00 | 6 | 5 | 96 | 30.56 | S | 2 | 0.00 |
| 17 | 12/14 | 08:00 | 1 | 0 | 95 | 30.54 | SSE | 1 | 0.00 |
| 18 | 12/14 | 07:00 | 1 | 0 | 94 | 30.52 | N | 1 | 0.00 |
| 19 | 12/14 | 06:00 | 1 | 0 | 94 | 30.52 | ESE | 0 | 0.00 |
| 20 | 12/14 | 05:00 | 2 | 0 | 93 | 30.49 | E | 0 | 0.00 |
| 21 | 12/14 | 04:00 | 4 | 2 | 92 | 30.48 | NNE | 0 | 0.00 |
| 22 | 12/14 | 03:00 | 5 | 2 | 90 | 30.49 | SSW | 2 | 0.00 |
| 23 | 12/14 | 02:00 | 6 | 3 | 88 | 30.48 | WSW | 0 | 0.00 |
| 24 | 12/14 | 01:00 | 8 | 4 | 86 | 30.46 | NW | 2 | 0.00 |